sensor_id;sensor_type;location;lat;lon;timestamp;temperature;humidity
71942;DHT22;59997;53.300;-6.260;2023-03-01T00:02:02;6.29;80.90
71942;DHT22;59997;53.300;-6.260;2023-03-01T00:04:29;6.36;80.68
71942;DHT22;59997;53.300;-6.260;2023-03-01T00:06:56;6.28;80.68
71942;DHT22;59997;53.300;-6.260;2023-03-01T00:09:22;6.28;80.73
71942;DHT22;59997;53.300;-6.260;2023-03-01T00:11:47;6.23;81.06
71942;DHT22;59997;53.300;-6.260;2023-03-01T00:14:13;6.30;81.26
71942;DHT22;59997;53.300;-6.260;2023-03-01T00:16:43;6.32;81.32
71942;DHT22;59997;53.300;-6.260;2023-03-01T00:19:13;6.19;81.85
71942;DHT22;59997;53.300;-6.260;2023-03-01T00:21:44;6.30;82.01
71942;DHT22;59997;53.300;-6.260;2023-03-01T00:24:10;6.34;81.95
71942;DHT22;59997;53.300;-6.260;2023-03-01T00:26:37;6.32;82.05
71942;DHT22;59997;53.300;-6.260;2023-03-01T00:29:03;6.37;81.56
71942;DHT22;59997;53.300;-6.260;2023-03-01T00:31:31;6.46;81.53
71942;DHT22;59997;53.300;-6.260;2023-03-01T00:33:59;6.51;81.10
71942;DHT22;59997;53.300;-6.260;2023-03-01T00:36:30;6.65;81.03
71942;DHT22;59997;53.300;-6.260;2023-03-01T00:38:57;6.70;81.30
71942;DHT22;59997;53.300;-6.260;2023-03-01T00:41:23;6.72;81.73
71942;DHT22;59997;53.300;-6.260;2023-03-01T00:43:51;6.81;82.00
71942;DHT22;59997;53.300;-6.260;2023-03-01T00:46:20;6.89;81.65
71942;DHT22;59997;53.300;-6.260;2023-03-01T00:48:46;6.84;81.69
71942;DHT22;59997;53.300;-6.260;2023-03-01T00:51:17;6.84;81.66
71942;DHT22;59997;53.300;-6.260;2023-03-01T00:53:44;6.85;81.32
71942;DHT22;59997;53.300;-6.260;2023-03-01T00:56:12;6.80;80.96
71942;DHT22;59997;53.300;-6.260;2023-03-01T00:58:38;6.78;80.74
71942;DHT22;59997;53.300;-6.260;2023-03-01T01:01:11;6.82;80.14
71942;DHT22;59997;53.300;-6.260;2023-03-01T01:03:58;6.84;79.95
71942;DHT22;59997;53.300;-6.260;2023-03-01T01:06:40;6.84;79.17
71942;DHT22;59997;53.300;-6.260;2023-03-01T01:09:09;6.88;78.45
71942;DHT22;59997;53.300;-6.260;2023-03-01T01:11:50;6.78;78.84
71942;DHT22;59997;53.300;-6.260;2023-03-01T01:14:18;6.64;79.26
71942;DHT22;59997;53.300;-6.260;2023-03-01T01:16:43;6.64;78.97
71942;DHT22;59997;53.300;-6.260;2023-03-01T01:19:10;6.68;79.26
71942;DHT22;59997;53.300;-6.260;2023-03-01T01:21:36;6.64;77.91
71942;DHT22;59997;53.300;-6.260;2023-03-01T01:24:04;6.60;77.68
71942;DHT22;59997;53.300;-6.260;2023-03-01T01:26:31;6.60;77.59
71942;DHT22;59997;53.300;-6.260;2023-03-01T01:28:59;6.50;77.29
71942;DHT22;59997;53.300;-6.260;2023-03-01T01:31:27;6.60;76.83
71942;DHT22;59997;53.300;-6.260;2023-03-01T01:33:54;6.68;76.38
71942;DHT22;59997;53.300;-6.260;2023-03-01T01:36:21;6.72;76.56
71942;DHT22;59997;53.300;-6.260;2023-03-01T01:38:48;6.70;76.99
71942;DHT22;59997;53.300;-6.260;2023-03-01T01:41:14;6.65;77.38
71942;DHT22;59997;53.300;-6.260;2023-03-01T01:44:33;6.60;77.58
71942;DHT22;59997;53.300;-6.260;2023-03-01T01:46:37;6.71;76.82
71942;DHT22;59997;53.300;-6.260;2023-03-01T01:49:10;6.64;77.19
71942;DHT22;59997;53.300;-6.260;2023-03-01T01:51:41;6.64;76.70
71942;DHT22;59997;53.300;-6.260;2023-03-01T01:54:20;6.67;76.87
71942;DHT22;59997;53.300;-6.260;2023-03-01T01:56:59;6.65;77.19
71942;DHT22;59997;53.300;-6.260;2023-03-01T01:59:28;6.61;77.18
71942;DHT22;59997;53.300;-6.260;2023-03-01T02:01:58;6.63;77.05
71942;DHT22;59997;53.300;-6.260;2023-03-01T02:04:24;6.58;77.27
71942;DHT22;59997;53.300;-6.260;2023-03-01T02:07:18;6.61;76.87
71942;DHT22;59997;53.300;-6.260;2023-03-01T02:09:51;6.51;77.21
71942;DHT22;59997;53.300;-6.260;2023-03-01T02:12:20;6.53;77.04
71942;DHT22;59997;53.300;-6.260;2023-03-01T02:14:48;6.48;76.59
71942;DHT22;59997;53.300;-6.260;2023-03-01T02:17:16;6.55;76.52
71942;DHT22;59997;53.300;-6.260;2023-03-01T02:20:02;6.51;76.23
71942;DHT22;59997;53.300;-6.260;2023-03-01T02:22:44;6.48;76.80
71942;DHT22;59997;53.300;-6.260;2023-03-01T02:30:49;6.51;76.89
71942;DHT22;59997;53.300;-6.260;2023-03-01T02:33:35;6.47;77.99
71942;DHT22;59997;53.300;-6.260;2023-03-01T02:36:06;6.48;78.34
71942;DHT22;59997;53.300;-6.260;2023-03-01T02:38:34;6.47;78.71
71942;DHT22;59997;53.300;-6.260;2023-03-01T02:41:02;6.50;78.83
71942;DHT22;59997;53.300;-6.260;2023-03-01T02:43:31;6.58;79.03
71942;DHT22;59997;53.300;-6.260;2023-03-01T02:46:03;6.55;79.34
71942;DHT22;59997;53.300;-6.260;2023-03-01T02:48:43;6.55;79.64
71942;DHT22;59997;53.300;-6.260;2023-03-01T02:54:40;6.50;79.87
71942;DHT22;59997;53.300;-6.260;2023-03-01T02:57:08;6.53;79.87
71942;DHT22;59997;53.300;-6.260;2023-03-01T02:59:35;6.61;79.60
71942;DHT22;59997;53.300;-6.260;2023-03-01T03:02:26;6.57;79.63
71942;DHT22;59997;53.300;-6.260;2023-03-01T03:05:08;6.60;79.55
71942;DHT22;59997;53.300;-6.260;2023-03-01T03:07:38;6.58;79.75
71942;DHT22;59997;53.300;-6.260;2023-03-01T03:10:07;6.57;79.69
71942;DHT22;59997;53.300;-6.260;2023-03-01T03:12:34;6.51;79.80
71942;DHT22;59997;53.300;-6.260;2023-03-01T03:15:00;6.54;79.99
71942;DHT22;59997;53.300;-6.260;2023-03-01T03:17:26;6.54;79.64
71942;DHT22;59997;53.300;-6.260;2023-03-01T03:19:52;6.60;79.62
71942;DHT22;59997;53.300;-6.260;2023-03-01T03:22:18;6.60;79.52
71942;DHT22;59997;53.300;-6.260;2023-03-01T03:24:45;6.54;79.78
71942;DHT22;59997;53.300;-6.260;2023-03-01T03:27:11;6.50;79.71
71942;DHT22;59997;53.300;-6.260;2023-03-01T03:29:37;6.48;79.92
71942;DHT22;59997;53.300;-6.260;2023-03-01T03:32:02;6.58;79.80
71942;DHT22;59997;53.300;-6.260;2023-03-01T03:34:29;6.53;79.49
71942;DHT22;59997;53.300;-6.260;2023-03-01T03:36:55;6.61;79.26
71942;DHT22;59997;53.300;-6.260;2023-03-01T03:39:25;6.63;77.81
71942;DHT22;59997;53.300;-6.260;2023-03-01T03:41:52;6.54;78.03
71942;DHT22;59997;53.300;-6.260;2023-03-01T03:44:19;6.63;77.73
71942;DHT22;59997;53.300;-6.260;2023-03-01T03:46:44;6.53;78.22
71942;DHT22;59997;53.300;-6.260;2023-03-01T03:49:10;6.55;78.61
71942;DHT22;59997;53.300;-6.260;2023-03-01T03:51:35;6.54;78.95
71942;DHT22;59997;53.300;-6.260;2023-03-01T03:54:01;6.55;78.69
71942;DHT22;59997;53.300;-6.260;2023-03-01T03:56:27;6.48;78.78
71942;DHT22;59997;53.300;-6.260;2023-03-01T03:58:53;6.47;78.83
71942;DHT22;59997;53.300;-6.260;2023-03-01T04:01:18;6.41;78.96
71942;DHT22;59997;53.300;-6.260;2023-03-01T04:03:44;6.37;79.38
71942;DHT22;59997;53.300;-6.260;2023-03-01T04:06:15;6.39;79.06
71942;DHT22;59997;53.300;-6.260;2023-03-01T04:08:41;6.39;79.18
71942;DHT22;59997;53.300;-6.260;2023-03-01T04:11:07;6.39;78.03
71942;DHT22;59997;53.300;-6.260;2023-03-01T04:13:53;6.41;77.55
71942;DHT22;59997;53.300;-6.260;2023-03-01T04:16:19;6.40;77.36
71942;DHT22;59997;53.300;-6.260;2023-03-01T04:18:45;6.39;77.19
71942;DHT22;59997;53.300;-6.260;2023-03-01T04:21:12;6.34;77.36
71942;DHT22;59997;53.300;-6.260;2023-03-01T04:23:38;6.30;77.54
71942;DHT22;59997;53.300;-6.260;2023-03-01T04:26:03;6.41;76.94
71942;DHT22;59997;53.300;-6.260;2023-03-01T04:28:30;6.28;77.71
71942;DHT22;59997;53.300;-6.260;2023-03-01T04:30:58;6.28;77.90
71942;DHT22;59997;53.300;-6.260;2023-03-01T04:33:26;6.30;77.80
71942;DHT22;59997;53.300;-6.260;2023-03-01T04:35:52;6.32;77.89
71942;DHT22;59997;53.300;-6.260;2023-03-01T04:38:18;6.36;77.96
71942;DHT22;59997;53.300;-6.260;2023-03-01T04:40:45;6.34;78.06
71942;DHT22;59997;53.300;-6.260;2023-03-01T04:43:12;6.32;78.09
71942;DHT22;59997;53.300;-6.260;2023-03-01T04:45:41;6.28;78.23
71942;DHT22;59997;53.300;-6.260;2023-03-01T04:48:07;6.30;77.93
71942;DHT22;59997;53.300;-6.260;2023-03-01T04:50:33;6.34;77.91
71942;DHT22;59997;53.300;-6.260;2023-03-01T04:52:59;6.29;78.11
71942;DHT22;59997;53.300;-6.260;2023-03-01T04:55:26;6.30;78.28
71942;DHT22;59997;53.300;-6.260;2023-03-01T04:57:52;6.34;78.29
71942;DHT22;59997;53.300;-6.260;2023-03-01T05:00:19;6.26;78.62
71942;DHT22;59997;53.300;-6.260;2023-03-01T05:02:52;6.22;79.23
71942;DHT22;59997;53.300;-6.260;2023-03-01T05:05:30;6.26;79.56
71942;DHT22;59997;53.300;-6.260;2023-03-01T05:08:13;6.29;79.49
71942;DHT22;59997;53.300;-6.260;2023-03-01T05:10:49;6.18;79.72
71942;DHT22;59997;53.300;-6.260;2023-03-01T05:13:15;6.12;79.84
71942;DHT22;59997;53.300;-6.260;2023-03-01T05:15:48;6.11;80.05
71942;DHT22;59997;53.300;-6.260;2023-03-01T05:18:18;6.12;79.93
71942;DHT22;59997;53.300;-6.260;2023-03-01T05:20:43;6.18;79.25
71942;DHT22;59997;53.300;-6.260;2023-03-01T05:23:10;6.22;79.57
71942;DHT22;59997;53.300;-6.260;2023-03-01T05:25:35;6.28;79.53
71942;DHT22;59997;53.300;-6.260;2023-03-01T05:28:11;6.30;79.33
71942;DHT22;59997;53.300;-6.260;2023-03-01T05:30:37;6.20;79.87
71942;DHT22;59997;53.300;-6.260;2023-03-01T05:33:04;6.11;80.30
71942;DHT22;59997;53.300;-6.260;2023-03-01T05:35:33;6.11;80.13
71942;DHT22;59997;53.300;-6.260;2023-03-01T05:37:59;6.15;79.67
71942;DHT22;59997;53.300;-6.260;2023-03-01T05:40:24;6.18;79.68
71942;DHT22;59997;53.300;-6.260;2023-03-01T05:42:53;6.12;79.87
71942;DHT22;59997;53.300;-6.260;2023-03-01T05:45:20;6.09;80.04
71942;DHT22;59997;53.300;-6.260;2023-03-01T05:47:48;5.97;80.95
71942;DHT22;59997;53.300;-6.260;2023-03-01T05:50:15;5.94;81.55
71942;DHT22;59997;53.300;-6.260;2023-03-01T05:52:46;5.84;82.47
71942;DHT22;59997;53.300;-6.260;2023-03-01T05:55:12;5.78;83.02
71942;DHT22;59997;53.300;-6.260;2023-03-01T05:57:37;5.73;83.62
71942;DHT22;59997;53.300;-6.260;2023-03-01T06:00:03;5.73;83.87
71942;DHT22;59997;53.300;-6.260;2023-03-01T06:02:29;5.68;84.37
71942;DHT22;59997;53.300;-6.260;2023-03-01T06:04:55;5.73;84.48
71942;DHT22;59997;53.300;-6.260;2023-03-01T06:07:20;5.73;84.48
71942;DHT22;59997;53.300;-6.260;2023-03-01T06:09:47;5.63;84.63
71942;DHT22;59997;53.300;-6.260;2023-03-01T06:12:13;5.61;84.81
71942;DHT22;59997;53.300;-6.260;2023-03-01T06:14:38;5.57;84.64
71942;DHT22;59997;53.300;-6.260;2023-03-01T06:17:04;5.57;84.71
71942;DHT22;59997;53.300;-6.260;2023-03-01T06:19:29;5.70;84.47
71942;DHT22;59997;53.300;-6.260;2023-03-01T06:21:55;5.75;84.24
71942;DHT22;59997;53.300;-6.260;2023-03-01T06:24:21;5.66;84.42
71942;DHT22;59997;53.300;-6.260;2023-03-01T06:26:47;5.74;84.12
71942;DHT22;59997;53.300;-6.260;2023-03-01T06:29:12;5.71;84.20
71942;DHT22;59997;53.300;-6.260;2023-03-01T06:31:40;5.77;83.13
71942;DHT22;59997;53.300;-6.260;2023-03-01T06:34:05;5.75;83.08
71942;DHT22;59997;53.300;-6.260;2023-03-01T06:36:32;5.71;82.90
71942;DHT22;59997;53.300;-6.260;2023-03-01T06:38:57;5.84;82.12
71942;DHT22;59997;53.300;-6.260;2023-03-01T06:41:24;5.81;81.88
71942;DHT22;59997;53.300;-6.260;2023-03-01T06:43:50;5.85;82.29
71942;DHT22;59997;53.300;-6.260;2023-03-01T06:46:16;5.74;82.91
71942;DHT22;59997;53.300;-6.260;2023-03-01T06:48:42;5.64;83.57
71942;DHT22;59997;53.300;-6.260;2023-03-01T06:51:07;5.54;84.17
71942;DHT22;59997;53.300;-6.260;2023-03-01T06:53:34;5.53;84.47
71942;DHT22;59997;53.300;-6.260;2023-03-01T06:56:01;5.49;84.68
71942;DHT22;59997;53.300;-6.260;2023-03-01T06:58:27;5.52;84.89
71942;DHT22;59997;53.300;-6.260;2023-03-01T07:00:54;5.56;84.99
71942;DHT22;59997;53.300;-6.260;2023-03-01T07:03:19;5.52;85.18
71942;DHT22;59997;53.300;-6.260;2023-03-01T07:05:45;5.42;85.49
71942;DHT22;59997;53.300;-6.260;2023-03-01T07:08:10;5.35;85.88
71942;DHT22;59997;53.300;-6.260;2023-03-01T07:10:37;5.32;86.07
71942;DHT22;59997;53.300;-6.260;2023-03-01T07:13:03;5.35;86.43
71942;DHT22;59997;53.300;-6.260;2023-03-01T07:15:28;5.32;86.43
71942;DHT22;59997;53.300;-6.260;2023-03-01T07:17:54;5.25;86.45
71942;DHT22;59997;53.300;-6.260;2023-03-01T07:20:22;5.26;86.52
71942;DHT22;59997;53.300;-6.260;2023-03-01T07:22:51;5.32;86.27
71942;DHT22;59997;53.300;-6.260;2023-03-01T07:25:17;5.35;85.97
71942;DHT22;59997;53.300;-6.260;2023-03-01T07:27:44;5.32;85.77
71942;DHT22;59997;53.300;-6.260;2023-03-01T07:30:13;5.28;85.86
71942;DHT22;59997;53.300;-6.260;2023-03-01T07:32:39;5.29;85.57
71942;DHT22;59997;53.300;-6.260;2023-03-01T07:35:05;5.29;85.50
71942;DHT22;59997;53.300;-6.260;2023-03-01T07:37:31;5.33;85.44
71942;DHT22;59997;53.300;-6.260;2023-03-01T07:39:57;5.32;85.37
71942;DHT22;59997;53.300;-6.260;2023-03-01T07:42:23;5.38;85.22
71942;DHT22;59997;53.300;-6.260;2023-03-01T07:44:49;5.35;85.22
71942;DHT22;59997;53.300;-6.260;2023-03-01T07:47:14;5.40;84.82
71942;DHT22;59997;53.300;-6.260;2023-03-01T07:49:41;5.44;84.57
71942;DHT22;59997;53.300;-6.260;2023-03-01T07:52:10;5.54;84.31
71942;DHT22;59997;53.300;-6.260;2023-03-01T07:54:37;5.49;84.16
71942;DHT22;59997;53.300;-6.260;2023-03-01T07:57:03;5.57;83.81
71942;DHT22;59997;53.300;-6.260;2023-03-01T07:59:29;5.61;83.42
71942;DHT22;59997;53.300;-6.260;2023-03-01T08:01:56;5.63;83.32
71942;DHT22;59997;53.300;-6.260;2023-03-01T08:04:23;5.64;83.67
71942;DHT22;59997;53.300;-6.260;2023-03-01T08:06:51;5.61;83.53
71942;DHT22;59997;53.300;-6.260;2023-03-01T08:09:17;5.68;83.34
71942;DHT22;59997;53.300;-6.260;2023-03-01T08:11:42;5.67;83.29
71942;DHT22;59997;53.300;-6.260;2023-03-01T08:14:08;5.66;83.35
71942;DHT22;59997;53.300;-6.260;2023-03-01T08:16:33;5.68;83.50
71942;DHT22;59997;53.300;-6.260;2023-03-01T08:19:09;5.73;83.34
71942;DHT22;59997;53.300;-6.260;2023-03-01T08:21:35;5.87;82.04
71942;DHT22;59997;53.300;-6.260;2023-03-01T08:24:04;5.91;81.79
71942;DHT22;59997;53.300;-6.260;2023-03-01T08:26:32;5.88;82.21
71942;DHT22;59997;53.300;-6.260;2023-03-01T08:28:59;5.88;82.02
71942;DHT22;59997;53.300;-6.260;2023-03-01T08:31:29;6.01;82.09
71942;DHT22;59997;53.300;-6.260;2023-03-01T08:33:57;6.13;80.68
71942;DHT22;59997;53.300;-6.260;2023-03-01T08:36:31;6.16;80.32
71942;DHT22;59997;53.300;-6.260;2023-03-01T08:38:57;6.22;80.04
71942;DHT22;59997;53.300;-6.260;2023-03-01T08:41:23;6.30;79.87
71942;DHT22;59997;53.300;-6.260;2023-03-01T08:43:49;6.28;79.35
71942;DHT22;59997;53.300;-6.260;2023-03-01T08:46:17;6.25;79.91
71942;DHT22;59997;53.300;-6.260;2023-03-01T08:48:42;6.22;79.79
71942;DHT22;59997;53.300;-6.260;2023-03-01T08:51:18;6.15;80.50
71942;DHT22;59997;53.300;-6.260;2023-03-01T08:53:44;6.18;81.94
71942;DHT22;59997;53.300;-6.260;2023-03-01T08:56:11;6.05;83.57
71942;DHT22;59997;53.300;-6.260;2023-03-01T08:58:37;5.90;84.49
71942;DHT22;59997;53.300;-6.260;2023-03-01T09:01:10;5.75;84.99
71942;DHT22;59997;53.300;-6.260;2023-03-01T09:03:36;5.79;85.45
71942;DHT22;59997;53.300;-6.260;2023-03-01T09:06:04;5.77;85.83
71942;DHT22;59997;53.300;-6.260;2023-03-01T09:08:38;5.83;85.89
71942;DHT22;59997;53.300;-6.260;2023-03-01T09:11:21;5.83;86.06
71942;DHT22;59997;53.300;-6.260;2023-03-01T09:13:48;5.88;86.34
71942;DHT22;59997;53.300;-6.260;2023-03-01T09:16:17;5.97;86.52
71942;DHT22;59997;53.300;-6.260;2023-03-01T09:18:43;6.04;86.52
71942;DHT22;59997;53.300;-6.260;2023-03-01T09:21:17;6.05;86.43
71942;DHT22;59997;53.300;-6.260;2023-03-01T09:23:45;5.97;86.51
71942;DHT22;59997;53.300;-6.260;2023-03-01T09:26:14;5.91;86.46
71942;DHT22;59997;53.300;-6.260;2023-03-01T09:28:42;5.90;86.57
71942;DHT22;59997;53.300;-6.260;2023-03-01T09:31:10;5.94;86.52
71942;DHT22;59997;53.300;-6.260;2023-03-01T09:33:37;5.95;86.55
71942;DHT22;59997;53.300;-6.260;2023-03-01T09:36:06;5.79;86.60
71942;DHT22;59997;53.300;-6.260;2023-03-01T09:38:33;5.90;86.92
71942;DHT22;59997;53.300;-6.260;2023-03-01T09:41:00;6.02;86.43
71942;DHT22;59997;53.300;-6.260;2023-03-01T09:43:50;5.95;86.11
71942;DHT22;59997;53.300;-6.260;2023-03-01T09:46:22;5.93;85.74
71942;DHT22;59997;53.300;-6.260;2023-03-01T09:48:54;6.02;83.80
71942;DHT22;59997;53.300;-6.260;2023-03-01T09:51:31;5.99;83.24
71942;DHT22;59997;53.300;-6.260;2023-03-01T09:53:57;6.05;83.18
71942;DHT22;59997;53.300;-6.260;2023-03-01T10:01:59;6.77;80.62
71942;DHT22;59997;53.300;-6.260;2023-03-01T10:04:51;6.71;80.78
71942;DHT22;59997;53.300;-6.260;2023-03-01T10:10:07;6.64;82.23
71942;DHT22;59997;53.300;-6.260;2023-03-01T10:12:40;6.72;81.62
71942;DHT22;59997;53.300;-6.260;2023-03-01T10:15:16;6.95;81.87
71942;DHT22;59997;53.300;-6.260;2023-03-01T10:17:50;6.80;80.32
71942;DHT22;59997;53.300;-6.260;2023-03-01T10:20:28;6.57;79.38
71942;DHT22;59997;53.300;-6.260;2023-03-01T10:22:55;6.60;80.19
71942;DHT22;59997;53.300;-6.260;2023-03-01T10:25:32;6.68;79.85
71942;DHT22;59997;53.300;-6.260;2023-03-01T10:28:07;6.78;80.11
71942;DHT22;59997;53.300;-6.260;2023-03-01T10:30:38;7.05;79.36
71942;DHT22;59997;53.300;-6.260;2023-03-01T10:33:15;7.57;78.83
71942;DHT22;59997;53.300;-6.260;2023-03-01T10:35:42;7.52;78.34
71942;DHT22;59997;53.300;-6.260;2023-03-01T10:38:12;7.28;79.11
71942;DHT22;59997;53.300;-6.260;2023-03-01T10:41:15;6.98;78.98
71942;DHT22;59997;53.300;-6.260;2023-03-01T10:43:50;6.84;79.84
71942;DHT22;59997;53.300;-6.260;2023-03-01T10:46:33;6.89;80.51
71942;DHT22;59997;53.300;-6.260;2023-03-01T10:51:42;7.16;78.30
71942;DHT22;59997;53.300;-6.260;2023-03-01T10:54:19;7.28;79.66
71942;DHT22;59997;53.300;-6.260;2023-03-01T10:56:50;7.54;79.41
71942;DHT22;59997;53.300;-6.260;2023-03-01T10:59:36;7.96;78.22
71942;DHT22;59997;53.300;-6.260;2023-03-01T11:02:28;8.94;76.82
71942;DHT22;59997;53.300;-6.260;2023-03-01T11:07:23;10.05;69.93
71942;DHT22;59997;53.300;-6.260;2023-03-01T11:09:48;9.60;71.29
71942;DHT22;59997;53.300;-6.260;2023-03-01T11:12:15;9.14;72.20
71942;DHT22;59997;53.300;-6.260;2023-03-01T11:14:53;9.03;73.01
71942;DHT22;59997;53.300;-6.260;2023-03-01T11:17:28;9.74;71.87
71942;DHT22;59997;53.300;-6.260;2023-03-01T11:20:33;10.01;70.35
71942;DHT22;59997;53.300;-6.260;2023-03-01T11:23:04;9.65;72.68
71942;DHT22;59997;53.300;-6.260;2023-03-01T11:25:38;9.60;72.42
71942;DHT22;59997;53.300;-6.260;2023-03-01T11:28:09;8.90;72.82
71942;DHT22;59997;53.300;-6.260;2023-03-01T11:30:48;8.76;74.11
71942;DHT22;59997;53.300;-6.260;2023-03-01T11:38:38;8.79;73.84
71942;DHT22;59997;53.300;-6.260;2023-03-01T11:41:16;8.54;75.03
71942;DHT22;59997;53.300;-6.260;2023-03-01T11:43:59;8.61;75.04
71942;DHT22;59997;53.300;-6.260;2023-03-01T11:57:20;10.81;69.66
71942;DHT22;59997;53.300;-6.260;2023-03-01T12:09:27;11.62;64.25
71942;DHT22;59997;53.300;-6.260;2023-03-01T12:14:38;9.79;67.16
71942;DHT22;59997;53.300;-6.260;2023-03-01T12:17:55;9.31;70.10
71942;DHT22;59997;53.300;-6.260;2023-03-01T12:25:47;10.55;66.42
71942;DHT22;59997;53.300;-6.260;2023-03-01T12:42:18;11.50;66.90
71942;DHT22;59997;53.300;-6.260;2023-03-01T12:45:02;11.92;64.91
71942;DHT22;59997;53.300;-6.260;2023-03-01T12:47:52;11.66;64.66
71942;DHT22;59997;53.300;-6.260;2023-03-01T12:50:23;11.00;65.71
71942;DHT22;59997;53.300;-6.260;2023-03-01T12:52:53;11.04;66.68
71942;DHT22;59997;53.300;-6.260;2023-03-01T13:03:42;11.04;66.14
71942;DHT22;59997;53.300;-6.260;2023-03-01T13:09:25;9.98;68.94
71942;DHT22;59997;53.300;-6.260;2023-03-01T13:11:55;10.97;67.53
71942;DHT22;59997;53.300;-6.260;2023-03-01T13:16:47;11.16;66.42
71942;DHT22;59997;53.300;-6.260;2023-03-01T13:19:23;10.97;64.41
71942;DHT22;59997;53.300;-6.260;2023-03-01T13:21:51;10.81;66.32
71942;DHT22;59997;53.300;-6.260;2023-03-01T13:24:39;10.78;65.30
71942;DHT22;59997;53.300;-6.260;2023-03-01T13:29:50;9.65;68.76
71942;DHT22;59997;53.300;-6.260;2023-03-01T13:32:31;9.42;68.88
71942;DHT22;59997;53.300;-6.260;2023-03-01T13:34:58;9.32;68.21
71942;DHT22;59997;53.300;-6.260;2023-03-01T13:37:35;9.73;69.43
71942;DHT22;59997;53.300;-6.260;2023-03-01T13:40:05;10.39;67.43
71942;DHT22;59997;53.300;-6.260;2023-03-01T13:42:55;10.94;65.27
71942;DHT22;59997;53.300;-6.260;2023-03-01T13:47:59;9.49;68.32
71942;DHT22;59997;53.300;-6.260;2023-03-01T13:50:33;9.21;69.59
71942;DHT22;59997;53.300;-6.260;2023-03-01T13:53:05;9.39;70.53
71942;DHT22;59997;53.300;-6.260;2023-03-01T13:55:40;9.72;71.70
71942;DHT22;59997;53.300;-6.260;2023-03-01T13:58:20;9.70;71.27
71942;DHT22;59997;53.300;-6.260;2023-03-01T14:00:46;9.56;70.66
71942;DHT22;59997;53.300;-6.260;2023-03-01T14:03:19;9.42;70.44
71942;DHT22;59997;53.300;-6.260;2023-03-01T14:08:30;9.13;72.60
71942;DHT22;59997;53.300;-6.260;2023-03-01T14:16:31;8.44;74.33
71942;DHT22;59997;53.300;-6.260;2023-03-01T14:19:12;8.49;74.73
71942;DHT22;59997;53.300;-6.260;2023-03-01T14:21:39;8.46;73.56
71942;DHT22;59997;53.300;-6.260;2023-03-01T14:24:05;9.17;72.65
71942;DHT22;59997;53.300;-6.260;2023-03-01T14:26:32;10.09;71.13
71942;DHT22;59997;53.300;-6.260;2023-03-01T14:28:58;10.26;67.33
71942;DHT22;59997;53.300;-6.260;2023-03-01T14:31:44;10.05;66.80
71942;DHT22;59997;53.300;-6.260;2023-03-01T14:34:22;9.79;68.43
71942;DHT22;59997;53.300;-6.260;2023-03-01T14:36:48;9.25;68.35
71942;DHT22;59997;53.300;-6.260;2023-03-01T14:39:19;9.15;68.01
71942;DHT22;59997;53.300;-6.260;2023-03-01T14:41:46;9.14;68.32
71942;DHT22;59997;53.300;-6.260;2023-03-01T14:44:22;8.90;66.92
71942;DHT22;59997;53.300;-6.260;2023-03-01T14:46:52;9.00;68.11
71942;DHT22;59997;53.300;-6.260;2023-03-01T14:49:27;9.35;68.36
71942;DHT22;59997;53.300;-6.260;2023-03-01T14:51:59;8.91;69.39
71942;DHT22;59997;53.300;-6.260;2023-03-01T14:57:00;8.80;71.77
71942;DHT22;59997;53.300;-6.260;2023-03-01T14:59:26;9.07;72.40
71942;DHT22;59997;53.300;-6.260;2023-03-01T15:01:55;8.89;71.24
71942;DHT22;59997;53.300;-6.260;2023-03-01T15:04:22;8.42;73.88
71942;DHT22;59997;53.300;-6.260;2023-03-01T15:06:54;8.23;74.85
71942;DHT22;59997;53.300;-6.260;2023-03-01T15:09:20;8.13;75.11
71942;DHT22;59997;53.300;-6.260;2023-03-01T15:11:46;8.37;74.87
71942;DHT22;59997;53.300;-6.260;2023-03-01T15:17:29;9.13;70.44
71942;DHT22;59997;53.300;-6.260;2023-03-01T15:19:55;8.90;71.56
71942;DHT22;59997;53.300;-6.260;2023-03-01T15:22:22;8.61;72.21
71942;DHT22;59997;53.300;-6.260;2023-03-01T15:24:49;8.48;72.84
71942;DHT22;59997;53.300;-6.260;2023-03-01T15:27:21;8.35;73.28
71942;DHT22;59997;53.300;-6.260;2023-03-01T15:29:55;8.49;73.28
71942;DHT22;59997;53.300;-6.260;2023-03-01T15:32:32;8.48;72.78
71942;DHT22;59997;53.300;-6.260;2023-03-01T15:34:58;8.70;72.84
71942;DHT22;59997;53.300;-6.260;2023-03-01T15:37:45;8.86;72.16
71942;DHT22;59997;53.300;-6.260;2023-03-01T15:40:27;8.54;72.42
71942;DHT22;59997;53.300;-6.260;2023-03-01T15:43:01;8.30;72.17
71942;DHT22;59997;53.300;-6.260;2023-03-01T15:45:29;8.13;73.68
71942;DHT22;59997;53.300;-6.260;2023-03-01T15:47:55;7.92;74.96
71942;DHT22;59997;53.300;-6.260;2023-03-01T15:50:41;7.68;73.94
71942;DHT22;59997;53.300;-6.260;2023-03-01T15:53:12;7.50;74.48
71942;DHT22;59997;53.300;-6.260;2023-03-01T15:55:39;7.59;74.87
71942;DHT22;59997;53.300;-6.260;2023-03-01T15:58:34;7.28;73.74
71942;DHT22;59997;53.300;-6.260;2023-03-01T16:00:59;7.15;73.68
71942;DHT22;59997;53.300;-6.260;2023-03-01T16:03:25;7.26;74.15
71942;DHT22;59997;53.300;-6.260;2023-03-01T16:05:50;7.55;74.61
71942;DHT22;59997;53.300;-6.260;2023-03-01T16:08:17;7.72;74.91
71942;DHT22;59997;53.300;-6.260;2023-03-01T16:10:43;7.83;74.24
71942;DHT22;59997;53.300;-6.260;2023-03-01T16:13:10;7.74;74.07
71942;DHT22;59997;53.300;-6.260;2023-03-01T16:15:35;7.89;73.93
71942;DHT22;59997;53.300;-6.260;2023-03-01T16:18:01;7.92;72.62
71942;DHT22;59997;53.300;-6.260;2023-03-01T16:20:28;7.97;72.61
71942;DHT22;59997;53.300;-6.260;2023-03-01T16:22:54;8.02;72.27
71942;DHT22;59997;53.300;-6.260;2023-03-01T16:25:20;8.02;72.31
71942;DHT22;59997;53.300;-6.260;2023-03-01T16:27:49;8.06;72.06
71942;DHT22;59997;53.300;-6.260;2023-03-01T16:30:17;8.17;71.14
71942;DHT22;59997;53.300;-6.260;2023-03-01T16:32:45;8.23;71.72
71942;DHT22;59997;53.300;-6.260;2023-03-01T16:35:12;8.17;71.76
71942;DHT22;59997;53.300;-6.260;2023-03-01T16:37:39;8.20;72.68
71942;DHT22;59997;53.300;-6.260;2023-03-01T16:40:14;8.23;73.30
71942;DHT22;59997;53.300;-6.260;2023-03-01T16:42:41;8.13;73.14
71942;DHT22;59997;53.300;-6.260;2023-03-01T16:45:07;7.97;73.62
71942;DHT22;59997;53.300;-6.260;2023-03-01T16:47:33;7.79;74.27
71942;DHT22;59997;53.300;-6.260;2023-03-01T16:49:59;7.81;74.41
71942;DHT22;59997;53.300;-6.260;2023-03-01T16:52:25;7.71;75.10
71942;DHT22;59997;53.300;-6.260;2023-03-01T16:54:50;7.74;75.84
71942;DHT22;59997;53.300;-6.260;2023-03-01T16:57:15;7.62;76.02
71942;DHT22;59997;53.300;-6.260;2023-03-01T16:59:41;7.40;76.47
71942;DHT22;59997;53.300;-6.260;2023-03-01T17:02:10;7.33;77.38
71942;DHT22;59997;53.300;-6.260;2023-03-01T17:04:37;7.20;76.61
71942;DHT22;59997;53.300;-6.260;2023-03-01T17:07:03;7.17;76.83
71942;DHT22;59997;53.300;-6.260;2023-03-01T17:09:28;7.16;76.69
71942;DHT22;59997;53.300;-6.260;2023-03-01T17:11:54;7.13;77.10
71942;DHT22;59997;53.300;-6.260;2023-03-01T17:14:20;7.07;76.04
71942;DHT22;59997;53.300;-6.260;2023-03-01T17:16:46;7.03;76.81
71942;DHT22;59997;53.300;-6.260;2023-03-01T17:19:11;7.02;76.06
71942;DHT22;59997;53.300;-6.260;2023-03-01T17:21:45;6.96;76.40
71942;DHT22;59997;53.300;-6.260;2023-03-01T17:24:11;6.87;77.20
71942;DHT22;59997;53.300;-6.260;2023-03-01T17:26:38;6.74;77.56
71942;DHT22;59997;53.300;-6.260;2023-03-01T17:29:03;6.65;77.97
71942;DHT22;59997;53.300;-6.260;2023-03-01T17:31:30;6.61;78.37